Time;durP1;ratioP1;P1;durP2;ratioP2;P2;SDS_P1;SDS_P2;PMS_P1;PMS_P2;Temp;Humidity;BMP_temperature;BMP_pressure;BME280_temperature;BME280_humidity;BME280_pressure;Samples;Min_cycle;Max_cycle;Signal;HPM_P1;HPM_P2
2021/01/28 00:02:08;;;;;;;;;;;;;;;-2.13;73.27;96719.59;1767623;80;25808;-82
2021/01/28 00:04:35;;;;;;;;;;;;;;;-2.12;73.30;96720.43;1762485;80;25780;-81
2021/01/28 00:07:02;;;;;;;;;;;;;;;-2.12;73.28;96720.43;1768329;80;28279;-81
2021/01/28 00:09:29;;;;;;;;;;;;;;;-2.14;73.30;96720.58;1755619;80;26801;-82
2021/01/28 00:11:56;;;;;;;;;;;;;;;-2.12;73.37;96725.23;1751843;81;25820;-82
2021/01/28 00:14:23;;;;;;;;;;;;;;;-2.13;73.31;96714.30;1754593;80;25752;-82
2021/01/28 00:16:50;;;;;;;;;;;;;;;-2.13;73.30;96715.63;1766523;80;25757;-82
2021/01/28 00:19:17;;;;;;;;;;;;;;;-2.15;73.25;96707.50;1751708;80;28420;-82
2021/01/28 00:21:44;;;;;;;;;;;;;;;-2.15;73.23;96710.98;1753825;80;25799;-82
2021/01/28 00:24:11;;;;;;;;;;;;;;;-2.21;73.20;96703.16;1748995;80;25774;-82
2021/01/28 00:26:38;;;;;;;;;;;;;;;-2.21;73.29;96703.66;1749079;80;25715;-82
2021/01/28 00:29:05;;;;;;;;;;;;;;;-2.20;73.37;96705.33;1751246;80;26285;-81
2021/01/28 00:31:33;;;;;;;;;;;;;;;-2.19;73.38;96700.37;1754462;80;27500;-82
2021/01/28 00:34:00;;;;;;;;;;;;;;;-2.23;73.35;96689.27;1750225;80;25877;-82
2021/01/28 00:36:27;;;;;;;;;;;;;;;-2.27;73.38;96685.24;1754423;80;25823;-82
2021/01/28 00:38:54;;;;;;;;;;;;;;;-2.29;73.38;96686.37;1738839;80;25814;-81
2021/01/28 00:41:21;;;;;;;;;;;;;;;-2.29;73.43;96675.79;1753786;80;25703;-82
2021/01/28 00:43:48;;;;;;;;;;;;;;;-2.26;73.42;96670.21;1754642;80;27616;-82
2021/01/28 00:46:15;;;;;;;;;;;;;;;-2.22;73.40;96669.78;1754989;80;25817;-82
2021/01/28 00:48:42;;;;;;;;;;;;;;;-2.24;73.35;96669.58;1761512;80;25716;-82
2021/01/28 00:51:09;;;;;;;;;;;;;;;-2.23;73.40;96663.31;1746910;81;25766;-82
2021/01/28 00:53:36;;;;;;;;;;;;;;;-2.26;73.28;96660.95;1747259;80;26342;-82
2021/01/28 00:56:03;;;;;;;;;;;;;;;-2.31;73.23;96664.56;1747767;80;27471;-81
2021/01/28 00:58:30;;;;;;;;;;;;;;;-2.34;73.26;96660.89;1747182;81;26401;-81
2021/01/28 01:00:58;;;;;;;;;;;;;;;-2.36;73.26;96662.84;1767538;80;25731;-81
2021/01/28 01:03:26;;;;;;;;;;;;;;;-2.37;73.24;96660.69;1752410;79;25713;-81
2021/01/28 01:05:53;;;;;;;;;;;;;;;-2.39;73.21;96659.17;1754432;80;26393;-81
2021/01/28 01:08:28;;;;;;;;;;;;;;;-2.41;73.27;96659.80;1746312;80;27486;-81
2021/01/28 01:10:58;;;;;;;;;;;;;;;-2.40;73.29;96658.83;1746110;80;25382;-81
2021/01/28 01:13:28;;;;;;;;;;;;;;;-2.39;73.31;96657.36;1746225;81;25836;-81
2021/01/28 01:15:56;;;;;;;;;;;;;;;-2.44;73.19;96649.55;1766316;80;26609;-82
2021/01/28 01:18:26;;;;;;;;;;;;;;;-2.48;73.19;96653.47;1747540;80;26017;-82
2021/01/28 01:20:53;;;;;;;;;;;;;;;-2.46;73.34;96647.55;1749728;81;28485;-82
2021/01/28 01:23:20;;;;;;;;;;;;;;;-2.44;73.42;96652.20;1749433;80;25832;-82
2021/01/28 01:25:47;;;;;;;;;;;;;;;-2.44;73.35;96648.23;1749661;80;26419;-82
2021/01/28 01:28:15;;;;;;;;;;;;;;;-2.49;73.23;96641.23;1749588;80;26397;-81
2021/01/28 01:30:43;;;;;;;;;;;;;;;-2.55;73.29;96647.95;1749658;81;26108;-82
2021/01/28 01:33:10;;;;;;;;;;;;;;;-2.57;73.45;96640.17;1749328;80;28464;-81
2021/01/28 01:35:37;;;;;;;;;;;;;;;-2.58;73.46;96637.19;1749228;80;25783;-82
2021/01/28 01:38:05;;;;;;;;;;;;;;;-2.55;73.47;96639.55;1749250;80;25767;-82
2021/01/28 01:40:38;;;;;;;;;;;;;;;-2.54;73.46;96641.17;1749450;80;25787;-82
2021/01/28 01:43:07;;;;;;;;;;;;;;;-2.56;73.46;96633.91;1749517;80;26402;-82
2021/01/28 01:45:39;;;;;;;;;;;;;;;-2.65;73.28;96633.95;1749429;80;27683;-82
2021/01/28 01:48:13;;;;;;;;;;;;;;;-2.68;73.46;96636.42;1771001;80;25750;-82
2021/01/28 01:50:59;;;;;;;;;;;;;;;-2.65;73.50;96637.91;1759932;80;25775;-82
2021/01/28 01:53:35;;;;;;;;;;;;;;;-2.68;73.47;96643.03;1749310;80;26726;-82
2021/01/28 01:56:25;;;;;;;;;;;;;;;-2.66;73.57;96638.44;1749294;80;25787;-82
2021/01/28 01:59:07;;;;;;;;;;;;;;;-2.61;73.64;96640.13;1749256;80;28658;-82
2021/01/28 02:01:43;;;;;;;;;;;;;;;-2.64;73.54;96640.41;1749212;80;25762;-81
2021/01/28 02:04:12;;;;;;;;;;;;;;;-2.68;73.49;96642.20;1748581;80;25843;-81
2021/01/28 02:06:45;;;;;;;;;;;;;;;-2.74;73.54;96640.96;1749160;81;25793;-82
2021/01/28 02:09:13;;;;;;;;;;;;;;;-2.74;73.60;96632.20;1749539;81;25892;-82
2021/01/28 02:11:43;;;;;;;;;;;;;;;-2.72;73.64;96636.36;1749551;80;28533;-82
2021/01/28 02:14:12;;;;;;;;;;;;;;;-2.70;73.62;96635.73;1749477;80;25751;-82
2021/01/28 02:16:52;;;;;;;;;;;;;;;-2.70;73.59;96641.02;1749600;80;25738;-81
2021/01/28 02:19:28;;;;;;;;;;;;;;;-2.72;73.63;96628.93;1748159;81;25728;-82
2021/01/28 02:21:55;;;;;;;;;;;;;;;-2.69;73.71;96627.32;1746093;80;25739;-82
2021/01/28 02:24:31;;;;;;;;;;;;;;;-2.66;73.74;96626.55;1719502;82;27517;-82
2021/01/28 02:26:59;;;;;;;;;;;;;;;-2.62;73.69;96625.25;1746019;80;26204;-81
2021/01/28 02:29:27;;;;;;;;;;;;;;;-2.61;73.68;96621.62;1719610;82;25768;-81
2021/01/28 02:31:55;;;;;;;;;;;;;;;-2.59;73.67;96622.80;1746026;80;27226;-81
2021/01/28 02:34:23;;;;;;;;;;;;;;;-2.60;73.66;96606.61;1746145;81;26010;-81
2021/01/28 02:36:52;;;;;;;;;;;;;;;-2.60;73.60;96606.12;1746100;80;27345;-81
2021/01/28 02:39:23;;;;;;;;;;;;;;;-2.63;73.58;96603.77;1746000;81;26638;-82
2021/01/28 02:41:59;;;;;;;;;;;;;;;-2.64;73.61;96604.74;1756774;80;26370;-81
2021/01/28 02:44:27;;;;;;;;;;;;;;;-2.68;73.49;96606.05;1746152;80;25784;-81
2021/01/28 02:46:54;;;;;;;;;;;;;;;-2.76;73.47;96600.65;1746117;81;25940;-81
2021/01/28 02:49:21;;;;;;;;;;;;;;;-2.78;73.58;96610.56;1746057;81;28516;-81
2021/01/28 02:51:48;;;;;;;;;;;;;;;-2.79;73.65;96606.25;1767720;80;25719;-82
2021/01/28 02:54:15;;;;;;;;;;;;;;;-2.76;73.75;96609.06;1746129;81;25405;-81
2021/01/28 02:56:42;;;;;;;;;;;;;;;-2.77;73.71;96604.27;1746182;80;26522;-82
2021/01/28 02:59:09;;;;;;;;;;;;;;;-2.79;73.72;96594.86;1756670;80;25807;-81
2021/01/28 03:01:38;;;;;;;;;;;;;;;-2.75;73.67;96594.87;1750111;80;27582;-81
2021/01/28 03:04:07;;;;;;;;;;;;;;;-2.77;73.61;96600.80;1746215;81;25846;-81
2021/01/28 03:06:34;;;;;;;;;;;;;;;-2.77;73.44;96592.38;1746320;81;25641;-81
2021/01/28 03:09:01;;;;;;;;;;;;;;;-2.94;73.16;96590.56;1746298;81;25864;-81
2021/01/28 03:11:28;;;;;;;;;;;;;;;-3.06;73.31;96588.61;1766995;80;25886;-81
2021/01/28 03:13:55;;;;;;;;;;;;;;;-3.03;73.43;96584.84;1746715;80;27546;-81
2021/01/28 03:16:22;;;;;;;;;;;;;;;-3.04;73.20;96583.19;1746146;81;25768;-81
2021/01/28 03:18:49;;;;;;;;;;;;;;;-3.08;73.25;96582.64;1755602;80;25871;-81
2021/01/28 03:21:16;;;;;;;;;;;;;;;-3.09;73.34;96585.42;1749217;80;25804;-81
2021/01/28 03:23:43;;;;;;;;;;;;;;;-3.10;73.35;96581.12;1749208;81;25946;-82
2021/01/28 03:26:10;;;;;;;;;;;;;;;-3.11;73.18;96580.77;1749106;80;27354;-81
2021/01/28 03:28:37;;;;;;;;;;;;;;;-3.21;72.82;96578.67;1749225;80;25673;-81
2021/01/28 03:31:04;;;;;;;;;;;;;;;-3.27;72.97;96578.30;1749308;81;26016;-82
2021/01/28 03:33:31;;;;;;;;;;;;;;;-3.32;72.71;96580.53;1749205;80;26678;-81
2021/01/28 03:35:58;;;;;;;;;;;;;;;-3.41;72.51;96573.50;1749251;81;25934;-82
2021/01/28 03:38:25;;;;;;;;;;;;;;;-3.51;72.46;96576.66;1749149;80;29026;-82
2021/01/28 03:40:53;;;;;;;;;;;;;;;-3.55;72.37;96577.92;1749257;80;26107;-82
2021/01/28 03:43:19;;;;;;;;;;;;;;;-3.70;71.84;96566.16;1768274;80;25739;-81
2021/01/28 03:45:46;;;;;;;;;;;;;;;-3.82;71.52;96558.91;1751276;80;26463;-81
2021/01/28 03:48:13;;;;;;;;;;;;;;;-3.96;71.48;96556.72;1749308;80;25333;-82
2021/01/28 03:50:40;;;;;;;;;;;;;;;-4.03;71.74;96555.16;1749056;80;27541;-82
2021/01/28 03:53:07;;;;;;;;;;;;;;;-4.09;71.61;96557.03;1749122;80;25725;-82
2021/01/28 03:55:34;;;;;;;;;;;;;;;-4.17;71.61;96554.28;1749324;81;25688;-82
2021/01/28 03:58:01;;;;;;;;;;;;;;;-4.21;71.51;96559.47;1749124;81;25744;-82
2021/01/28 04:00:31;;;;;;;;;;;;;;;-4.31;71.29;96560.46;1749142;80;25779;-82
2021/01/28 04:02:59;;;;;;;;;;;;;;;-4.47;70.93;96565.00;1749109;81;28683;-82
2021/01/28 04:05:26;;;;;;;;;;;;;;;-4.58;71.01;96567.74;1749067;81;25754;-82
2021/01/28 04:07:53;;;;;;;;;;;;;;;-4.71;70.75;96562.78;1749161;80;25860;-82
2021/01/28 04:10:24;;;;;;;;;;;;;;;-4.82;70.66;96558.45;1767962;80;25795;-82
2021/01/28 04:12:50;;;;;;;;;;;;;;;-4.92;70.86;96560.24;1750947;80;25809;-82
2021/01/28 04:15:18;;;;;;;;;;;;;;;-4.98;70.89;96564.75;1749242;81;27617;-82
2021/01/28 04:17:45;;;;;;;;;;;;;;;-5.03;70.86;96566.11;1749060;80;25771;-81
2021/01/28 04:20:13;;;;;;;;;;;;;;;-5.14;70.62;96563.12;1747669;81;26290;-81
2021/01/28 04:22:41;;;;;;;;;;;;;;;-5.25;70.66;96551.39;1746173;80;25735;-82
2021/01/28 04:25:08;;;;;;;;;;;;;;;-5.32;70.81;96548.96;1746284;81;26426;-81
2021/01/28 04:27:36;;;;;;;;;;;;;;;-5.34;70.87;96540.37;1747713;80;27554;-82
2021/01/28 04:30:06;;;;;;;;;;;;;;;-5.38;70.64;96545.54;1754489;80;25918;-82
2021/01/28 04:32:32;;;;;;;;;;;;;;;-5.50;70.52;96537.75;1758503;80;25724;-82
2021/01/28 04:34:59;;;;;;;;;;;;;;;-5.69;70.55;96536.39;1760001;80;26387;-82
2021/01/28 04:37:26;;;;;;;;;;;;;;;-5.76;70.62;96532.61;1746216;81;25784;-82
2021/01/28 04:39:54;;;;;;;;;;;;;;;-5.89;70.24;96538.59;1746145;81;27768;-81
2021/01/28 04:42:24;;;;;;;;;;;;;;;-5.96;70.35;96537.47;1746124;81;25793;-82
2021/01/28 04:44:52;;;;;;;;;;;;;;;-6.01;70.57;96540.95;1746068;81;25782;-81
2021/01/28 04:47:21;;;;;;;;;;;;;;;-6.05;70.43;96536.95;1753123;80;26274;-81
2021/01/28 04:49:54;;;;;;;;;;;;;;;-6.19;70.29;96531.06;1760137;80;25872;-82
2021/01/28 04:52:22;;;;;;;;;;;;;;;-6.25;70.25;96535.98;1745462;80;27569;-82
2021/01/28 04:54:53;;;;;;;;;;;;;;;-6.33;70.22;96526.61;1746126;81;25357;-82
2021/01/28 04:57:20;;;;;;;;;;;;;;;-6.42;69.93;96532.65;1746064;80;25724;-82
2021/01/28 04:59:49;;;;;;;;;;;;;;;-6.57;69.84;96522.94;1746186;80;25794;-81
2021/01/28 05:02:18;;;;;;;;;;;;;;;-6.62;70.01;96521.16;1746191;80;25992;-81
2021/01/28 05:04:52;;;;;;;;;;;;;;;-6.77;70.24;96526.39;1746223;81;28595;-81
2021/01/28 05:07:30;;;;;;;;;;;;;;;-6.78;70.51;96523.41;1745097;80;26354;-81
2021/01/28 05:10:16;;;;;;;;;;;;;;;-6.77;70.57;96526.39;1746205;81;26324;-81
2021/01/28 05:12:44;;;;;;;;;;;;;;;-6.83;70.27;96524.25;1746072;81;25829;-81
2021/01/28 05:15:23;;;;;;;;;;;;;;;-6.89;70.28;96528.70;1746170;81;25780;-81
2021/01/28 05:17:59;;;;;;;;;;;;;;;-6.97;70.26;96527.52;1746057;80;28593;-81
2021/01/28 05:20:28;;;;;;;;;;;;;;;-7.01;70.24;96526.61;1745986;81;26279;-81
2021/01/28 05:23:02;;;;;;;;;;;;;;;-7.07;70.13;96532.34;1746110;81;25741;-81
2021/01/28 05:25:33;;;;;;;;;;;;;;;-7.15;69.92;96525.09;1745451;80;26450;-81
2021/01/28 05:28:00;;;;;;;;;;;;;;;-7.30;69.75;96526.33;1746061;80;25875;-81
2021/01/28 05:30:39;;;;;;;;;;;;;;;-7.36;70.07;96526.80;1746057;81;27594;-81
2021/01/28 05:33:24;;;;;;;;;;;;;;;-7.35;70.27;96529.78;1749791;80;26199;-81
2021/01/28 05:36:13;;;;;;;;;;;;;;;-7.37;70.35;96519.92;1759193;80;25826;-81
2021/01/28 05:38:43;;;;;;;;;;;;;;;-7.39;70.25;96521.83;1745776;80;25693;-81
2021/01/28 05:41:13;;;;;;;;;;;;;;;-7.56;70.42;96513.98;1745786;81;25342;-81
2021/01/28 05:43:44;;;;;;;;;;;;;;;-7.60;70.75;96514.34;1745832;80;28963;-81
2021/01/28 05:46:14;;;;;;;;;;;;;;;-7.59;70.86;96508.14;1745660;81;26033;-81
2021/01/28 05:48:42;;;;;;;;;;;;;;;-7.62;70.97;96507.94;1745784;80;25916;-81
2021/01/28 05:51:18;;;;;;;;;;;;;;;-7.62;71.04;96521.52;1745761;80;25831;-81
2021/01/28 05:57:02;;;;;;;;;;;;;;;-7.68;71.05;96504.48;1875639;76;25601;-82
2021/01/28 05:59:33;;;;;;;;;;;;;;;-7.74;71.12;96506.29;1854300;77;26418;-81
2021/01/28 06:02:09;;;;;;;;;;;;;;;-7.72;71.01;96510.43;1802125;77;28445;-81
2021/01/28 06:04:58;;;;;;;;;;;;;;;-7.78;70.33;96505.69;1840948;77;25875;-81
2021/01/28 06:07:31;;;;;;;;;;;;;;;-7.93;70.15;96508.67;1822940;77;25753;-81
2021/01/28 06:10:14;;;;;;;;;;;;;;;-8.02;70.37;96503.68;1843081;77;25739;-81
2021/01/28 06:12:56;;;;;;;;;;;;;;;-8.03;70.52;96495.46;1828028;77;25807;-81
2021/01/28 06:15:48;;;;;;;;;;;;;;;-8.04;70.49;96499.03;1815709;77;27509;-81
2021/01/28 06:18:33;;;;;;;;;;;;;;;-8.11;70.51;96499.17;1845733;77;25777;-81
2021/01/28 06:21:22;;;;;;;;;;;;;;;-8.14;70.60;96492.85;1823557;77;25317;-81
2021/01/28 06:24:07;;;;;;;;;;;;;;;-8.22;70.73;96485.60;1814490;77;26158;-81
2021/01/28 06:26:44;;;;;;;;;;;;;;;-8.28;70.84;96478.68;1812666;77;25859;-80
2021/01/28 06:29:30;;;;;;;;;;;;;;;-8.31;70.89;96482.36;1832074;77;28602;-81
2021/01/28 06:32:10;;;;;;;;;;;;;;;-8.28;70.88;96489.16;1833571;77;26085;-81
2021/01/28 06:35:09;;;;;;;;;;;;;;;-8.31;70.93;96480.25;1833400;77;25805;-81
2021/01/28 06:37:45;;;;;;;;;;;;;;;-8.29;70.77;96483.55;1816366;77;25702;-81
2021/01/28 06:40:16;;;;;;;;;;;;;;;-8.31;70.73;96488.10;1813707;77;25911;-80
2021/01/28 06:42:52;;;;;;;;;;;;;;;-8.36;70.69;96491.09;1852298;77;27767;-80
2021/01/28 06:45:22;;;;;;;;;;;;;;;-8.35;70.81;96485.38;1814101;77;25733;-81
2021/01/28 06:48:02;;;;;;;;;;;;;;;-8.42;70.87;96483.70;1772957;77;26318;-80
2021/01/28 06:50:51;;;;;;;;;;;;;;;-8.44;71.01;96482.50;1788297;77;26351;-81
2021/01/28 06:53:29;;;;;;;;;;;;;;;-8.42;71.09;96477.98;1806656;77;25695;-81
2021/01/28 06:56:00;;;;;;;;;;;;;;;-8.35;71.03;96481.45;1825879;77;28984;-80
2021/01/28 06:58:53;;;;;;;;;;;;;;;-8.50;70.95;96475.61;1824815;77;25704;-80
2021/01/28 07:01:36;;;;;;;;;;;;;;;-8.55;71.19;96473.33;1824825;77;25650;-80
2021/01/28 07:04:07;;;;;;;;;;;;;;;-8.49;71.26;96483.82;1825055;77;25353;-79
2021/01/28 07:06:48;;;;;;;;;;;;;;;-8.51;71.14;96485.24;1823844;77;26741;-79
2021/01/28 07:09:34;;;;;;;;;;;;;;;-8.52;71.16;96487.50;1824425;77;27478;-79
2021/01/28 07:12:04;;;;;;;;;;;;;;;-8.53;71.14;96487.61;1852347;77;25713;-79
2021/01/28 07:14:32;;;;;;;;;;;;;;;-8.57;71.17;96483.08;1857288;77;26522;-79
2021/01/28 07:17:06;;;;;;;;;;;;;;;-8.55;71.19;96485.58;1835482;77;25643;-80
2021/01/28 07:19:36;;;;;;;;;;;;;;;-8.60;71.20;96482.02;1854459;77;25815;-79
2021/01/28 07:22:27;;;;;;;;;;;;;;;-8.59;71.33;96478.94;1839045;77;27592;-80
2021/01/28 07:24:55;;;;;;;;;;;;;;;-8.61;71.34;96485.59;1850927;77;26346;-80
2021/01/28 07:27:26;;;;;;;;;;;;;;;-8.63;71.39;96484.03;1833063;77;25924;-80
2021/01/28 07:29:55;;;;;;;;;;;;;;;-8.62;71.48;96473.92;1846597;77;26164;-79
2021/01/28 07:32:25;;;;;;;;;;;;;;;-8.52;71.57;96470.48;1839959;76;25786;-80
2021/01/28 07:38:00;;;;;;;;;;;;;;;-8.32;71.80;96473.34;1856154;76;25572;-80
2021/01/28 07:41:05;;;;;;;;;;;;;;;-8.32;71.79;96465.02;1785776;78;25755;-80
2021/01/28 07:43:38;;;;;;;;;;;;;;;-8.22;71.93;96458.59;1824649;78;28445;-80
2021/01/28 07:46:20;;;;;;;;;;;;;;;-8.18;71.89;96442.97;1805516;78;26527;-80
2021/01/28 07:48:48;;;;;;;;;;;;;;;-8.12;71.93;96439.41;1787403;78;25710;-79
2021/01/28 07:51:37;;;;;;;;;;;;;;;-8.02;71.98;96439.52;1798552;78;25790;-79
2021/01/28 07:54:07;;;;;;;;;;;;;;;-7.94;71.99;96433.18;1791620;78;25729;-80
2021/01/28 07:56:41;;;;;;;;;;;;;;;-7.89;71.95;96424.50;1768522;78;27515;-79
2021/01/28 07:59:14;;;;;;;;;;;;;;;-7.83;72.01;96418.75;1792347;78;26120;-79
2021/01/28 08:01:42;;;;;;;;;;;;;;;-7.75;72.05;96415.06;1795373;78;25761;-79
2021/01/28 08:04:22;;;;;;;;;;;;;;;-7.66;72.16;96409.07;1798018;78;26083;-80
2021/01/28 08:06:50;;;;;;;;;;;;;;;-7.55;72.15;96416.53;1804534;78;25886;-80
2021/01/28 08:09:17;;;;;;;;;;;;;;;-7.49;72.15;96406.41;1791313;78;27472;-80
2021/01/28 08:11:53;;;;;;;;;;;;;;;-7.34;72.32;96393.80;1787705;78;25759;-80
2021/01/28 08:14:25;;;;;;;;;;;;;;;-7.15;72.54;96395.28;1811916;78;25716;-79
2021/01/28 08:16:54;;;;;;;;;;;;;;;-6.93;72.75;96383.34;1799072;78;25938;-79
2021/01/28 08:19:27;;;;;;;;;;;;;;;-6.77;72.62;96384.67;1824158;77;26285;-80
2021/01/28 08:22:15;;;;;;;;;;;;;;;-6.68;72.49;96380.78;1798933;78;27535;-79
2021/01/28 08:24:53;;;;;;;;;;;;;;;-6.53;72.54;96379.97;1815767;78;25750;-79
2021/01/28 08:27:34;;;;;;;;;;;;;;;-6.36;72.66;96373.24;1801433;78;25845;-80
2021/01/28 08:30:08;;;;;;;;;;;;;;;-6.22;72.64;96367.15;1792638;78;25861;-79
2021/01/28 08:32:36;;;;;;;;;;;;;;;-6.06;72.68;96351.37;1801683;78;25791;-79
2021/01/28 08:37:47;;;;;;;;;;;;;;;-5.68;72.59;96338.25;1868111;76;25643;-79
2021/01/28 08:40:17;;;;;;;;;;;;;;;-5.54;72.70;96342.25;1824562;78;25749;-79
2021/01/28 08:42:44;;;;;;;;;;;;;;;-5.35;72.52;96351.47;1822560;78;28454;-78
2021/01/28 08:45:24;;;;;;;;;;;;;;;-5.17;72.38;96345.00;1824566;78;25720;-79
2021/01/28 08:48:00;;;;;;;;;;;;;;;-5.00;72.27;96346.92;1794613;78;25718;-79
2021/01/28 08:50:28;;;;;;;;;;;;;;;-4.78;72.25;96337.38;1796015;78;25871;-79
2021/01/28 08:53:08;;;;;;;;;;;;;;;-4.49;72.25;96333.83;1819880;78;26330;-79
2021/01/28 08:55:37;;;;;;;;;;;;;;;-4.23;72.17;96332.67;1795752;78;27488;-79
2021/01/28 08:58:17;;;;;;;;;;;;;;;-3.93;72.12;96341.58;1801445;78;26936;-79
2021/01/28 09:00:51;;;;;;;;;;;;;;;-3.65;71.94;96339.25;1802061;78;25747;-81
2021/01/28 09:03:26;;;;;;;;;;;;;;;-3.34;71.82;96333.10;1821326;78;25464;-82
2021/01/28 09:05:54;;;;;;;;;;;;;;;-3.02;71.60;96337.80;1806114;77;26589;-82
2021/01/28 09:08:37;;;;;;;;;;;;;;;-2.72;71.28;96331.27;1802590;78;27542;-82
2021/01/28 09:11:10;;;;;;;;;;;;;;;-2.54;70.82;96328.58;1803245;78;26043;-82
2021/01/28 09:13:37;;;;;;;;;;;;;;;-2.35;70.61;96324.86;1806747;77;25693;-82
2021/01/28 09:16:17;;;;;;;;;;;;;;;-2.16;70.43;96325.93;1804164;77;26513;-83
2021/01/28 09:18:50;;;;;;;;;;;;;;;-1.91;70.59;96332.97;1770411;78;25735;-82
2021/01/28 09:21:20;;;;;;;;;;;;;;;-1.63;70.16;96319.50;1804620;78;27503;-81
2021/01/28 09:24:05;;;;;;;;;;;;;;;-1.45;69.61;96316.23;1777717;78;26057;-82
2021/01/28 09:26:35;;;;;;;;;;;;;;;-1.23;69.69;96311.62;1809923;78;25726;-83
2021/01/28 09:29:12;;;;;;;;;;;;;;;-0.93;69.30;96315.41;1805633;78;26045;-82
2021/01/28 09:31:39;;;;;;;;;;;;;;;-0.63;69.05;96310.41;1813368;78;26293;-82
2021/01/28 09:34:14;;;;;;;;;;;;;;;-0.46;68.61;96314.66;1820252;77;28718;-81
2021/01/28 09:36:42;;;;;;;;;;;;;;;-0.30;68.09;96303.20;1820888;77;26587;-82
2021/01/28 09:39:16;;;;;;;;;;;;;;;-0.17;67.89;96302.16;1798285;78;25801;-82
2021/01/28 09:41:46;;;;;;;;;;;;;;;-0.03;67.70;96296.97;1780319;78;25690;-82
2021/01/28 09:44:32;;;;;;;;;;;;;;;0.24;67.55;96295.64;1812707;78;25313;-81
2021/01/28 09:47:12;;;;;;;;;;;;;;;0.37;67.38;96288.44;1805133;78;27730;-82
2021/01/28 09:49:39;;;;;;;;;;;;;;;0.55;67.26;96267.77;1828816;77;25808;-82
2021/01/28 09:52:10;;;;;;;;;;;;;;;0.76;67.26;96264.45;1821134;77;25717;-82
2021/01/28 09:54:37;;;;;;;;;;;;;;;0.76;66.05;96263.11;1796601;78;25726;-83
2021/01/28 09:57:04;;;;;;;;;;;;;;;0.79;66.00;96256.63;1811890;78;26002;-84
2021/01/28 09:59:31;;;;;;;;;;;;;;;1.05;66.03;96251.25;1797834;78;26692;-83
2021/01/28 10:01:58;;;;;;;;;;;;;;;1.28;65.73;96245.05;1802272;78;25772;-83
2021/01/28 10:04:25;;;;;;;;;;;;;;;1.44;65.07;96234.25;1806339;78;25721;-83
2021/01/28 10:06:52;;;;;;;;;;;;;;;1.67;65.12;96234.98;1802619;78;25694;-83
2021/01/28 10:09:19;;;;;;;;;;;;;;;2.06;64.68;96229.30;1797746;78;25813;-83
2021/01/28 10:11:46;;;;;;;;;;;;;;;2.31;64.27;96224.47;1797764;78;27704;-83
2021/01/28 10:14:13;;;;;;;;;;;;;;;2.38;63.97;96223.22;1811308;77;25792;-82
2021/01/28 10:16:40;;;;;;;;;;;;;;;2.47;63.14;96216.25;1797727;78;25909;-82
2021/01/28 10:19:07;;;;;;;;;;;;;;;2.39;62.87;96214.22;1802955;78;25764;-83
2021/01/28 10:21:35;;;;;;;;;;;;;;;2.41;62.87;96213.53;1798099;78;25892;-84
2021/01/28 10:24:02;;;;;;;;;;;;;;;2.20;62.66;96201.00;1797561;78;28654;-83
2021/01/28 10:26:28;;;;;;;;;;;;;;;2.08;62.82;96195.84;1801897;78;26374;-83
2021/01/28 10:28:56;;;;;;;;;;;;;;;1.99;62.70;96200.47;1797557;78;25742;-83
2021/01/28 10:31:23;;;;;;;;;;;;;;;1.95;62.82;96199.69;1802337;78;25652;-81
2021/01/28 10:33:51;;;;;;;;;;;;;;;1.87;63.03;96178.52;1814217;77;25707;-81
2021/01/28 10:36:19;;;;;;;;;;;;;;;1.83;62.66;96174.06;1810119;78;28711;-81
2021/01/28 10:38:46;;;;;;;;;;;;;;;1.77;62.81;96160.19;1797784;78;25796;-81
2021/01/28 10:41:13;;;;;;;;;;;;;;;1.77;62.98;96163.68;1797815;78;26501;-81
2021/01/28 10:43:40;;;;;;;;;;;;;;;1.74;62.69;96152.58;1797770;78;26227;-81
2021/01/28 10:46:07;;;;;;;;;;;;;;;1.62;62.73;96156.23;1797487;78;25790;-81
2021/01/28 10:48:34;;;;;;;;;;;;;;;1.47;62.60;96147.44;1798197;78;27495;-81
2021/01/28 10:51:04;;;;;;;;;;;;;;;1.33;62.99;96139.79;1797766;78;26337;-81
2021/01/28 10:53:32;;;;;;;;;;;;;;;1.24;63.20;96138.75;1809381;78;25893;-81
2021/01/28 10:55:59;;;;;;;;;;;;;;;1.08;63.11;96136.63;1830151;77;25856;-82
2021/01/28 10:58:26;;;;;;;;;;;;;;;1.02;63.38;96126.70;1820863;78;26451;-81
2021/01/28 11:00:54;;;;;;;;;;;;;;;0.83;62.98;96103.86;1819691;78;27700;-81
2021/01/28 11:03:21;;;;;;;;;;;;;;;0.85;63.51;96108.45;1820544;78;25738;-81
2021/01/28 11:05:50;;;;;;;;;;;;;;;0.97;63.38;96117.12;1817249;78;25801;-81
2021/01/28 11:08:17;;;;;;;;;;;;;;;1.08;63.73;96115.36;1822912;78;25783;-81
2021/01/28 11:10:45;;;;;;;;;;;;;;;1.16;63.68;96121.58;1814994;78;25802;-81
2021/01/28 11:13:12;;;;;;;;;;;;;;;1.28;63.63;96116.94;1825585;78;28387;-80
2021/01/28 11:15:39;;;;;;;;;;;;;;;1.36;63.54;96109.35;1797525;78;26141;-80
2021/01/28 11:18:09;;;;;;;;;;;;;;;1.45;63.67;96112.22;1799632;78;25828;-80
2021/01/28 11:20:36;;;;;;;;;;;;;;;1.44;63.31;96104.78;1817412;77;26370;-80
2021/01/28 11:23:04;;;;;;;;;;;;;;;1.57;63.37;96081.47;1814787;78;25749;-80
2021/01/28 11:25:31;;;;;;;;;;;;;;;1.88;63.50;96084.37;1797831;78;27487;-80
2021/01/28 11:27:58;;;;;;;;;;;;;;;2.02;63.20;96080.83;1797472;78;26100;-80
2021/01/28 11:30:28;;;;;;;;;;;;;;;2.09;62.86;96079.05;1802004;78;25831;-80
2021/01/28 11:32:55;;;;;;;;;;;;;;;2.12;62.88;96073.34;1797526;78;26296;-81
2021/01/28 11:35:25;;;;;;;;;;;;;;;2.07;62.61;96075.75;1797521;78;25707;-80
2021/01/28 11:37:52;;;;;;;;;;;;;;;2.01;62.73;96065.88;1810027;77;27495;-80
2021/01/28 11:40:22;;;;;;;;;;;;;;;1.96;62.83;96057.62;1797459;78;25725;-80
2021/01/28 11:42:50;;;;;;;;;;;;;;;1.95;62.62;96055.98;1797761;78;25755;-80
2021/01/28 11:45:19;;;;;;;;;;;;;;;1.93;62.47;96051.38;1797616;78;26171;-80
2021/01/28 11:47:46;;;;;;;;;;;;;;;2.03;62.63;96050.04;1825757;77;26017;-80
2021/01/28 11:50:14;;;;;;;;;;;;;;;2.09;62.31;96047.92;1814818;78;27477;-81
2021/01/28 11:52:43;;;;;;;;;;;;;;;2.12;62.59;96046.73;1822758;78;25880;-81
2021/01/28 11:55:14;;;;;;;;;;;;;;;2.05;62.38;96033.88;1830154;77;25792;-81
2021/01/28 11:57:41;;;;;;;;;;;;;;;2.12;62.55;96032.09;1826002;78;25837;-82
2021/01/28 12:00:11;;;;;;;;;;;;;;;2.34;62.81;96023.04;1797459;78;26268;-82
2021/01/28 12:02:39;;;;;;;;;;;;;;;2.51;62.68;96023.07;1820360;77;27486;-81
2021/01/28 12:05:08;;;;;;;;;;;;;;;2.85;62.92;96008.09;1797627;78;25812;-82
2021/01/28 12:07:35;;;;;;;;;;;;;;;3.08;62.72;96005.95;1804801;78;26359;-82
2021/01/28 12:10:05;;;;;;;;;;;;;;;3.16;62.40;95997.77;1797603;78;25796;-82
2021/01/28 12:12:32;;;;;;;;;;;;;;;3.28;62.02;95998.53;1800456;78;25919;-82
2021/01/28 12:14:59;;;;;;;;;;;;;;;3.31;61.63;95997.63;1797081;78;27793;-82
2021/01/28 12:17:26;;;;;;;;;;;;;;;3.41;61.44;95992.73;1800996;78;26141;-82
2021/01/28 12:19:53;;;;;;;;;;;;;;;3.39;61.35;95985.94;1797078;78;25303;-81
2021/01/28 12:22:20;;;;;;;;;;;;;;;3.32;61.28;95989.94;1800947;78;26341;-80
2021/01/28 12:24:47;;;;;;;;;;;;;;;3.29;61.32;95989.51;1820190;78;25976;-81
2021/01/28 12:27:14;;;;;;;;;;;;;;;3.22;61.19;95994.83;1811700;78;28427;-82
2021/01/28 12:29:41;;;;;;;;;;;;;;;3.10;61.35;95986.59;1803318;78;26113;-81
2021/01/28 12:32:10;;;;;;;;;;;;;;;2.94;61.28;95988.25;1797882;78;25869;-81
2021/01/28 12:34:39;;;;;;;;;;;;;;;2.86;61.37;95986.59;1797795;78;25879;-81
2021/01/28 12:37:07;;;;;;;;;;;;;;;2.72;61.56;95987.53;1801196;78;25821;-81
2021/01/28 12:39:34;;;;;;;;;;;;;;;2.56;61.69;95986.51;1796798;78;27540;-81
2021/01/28 12:42:02;;;;;;;;;;;;;;;2.52;61.76;95978.11;1795143;78;25795;-81
2021/01/28 12:44:29;;;;;;;;;;;;;;;2.53;61.89;95978.42;1786965;78;25800;-81
2021/01/28 12:46:56;;;;;;;;;;;;;;;2.47;61.84;95964.54;1795627;78;25726;-82
2021/01/28 12:49:23;;;;;;;;;;;;;;;2.37;61.82;95972.57;1802400;78;26278;-81
2021/01/28 12:51:53;;;;;;;;;;;;;;;2.35;62.10;95966.11;1802670;77;27480;-81
2021/01/28 12:54:19;;;;;;;;;;;;;;;2.32;62.16;95962.49;1785401;78;25690;-81
2021/01/28 12:56:47;;;;;;;;;;;;;;;2.29;62.45;95964.75;1785944;78;25712;-82
2021/01/28 12:59:13;;;;;;;;;;;;;;;2.23;62.13;95966.33;1812992;77;26469;-81
2021/01/28 13:01:41;;;;;;;;;;;;;;;2.09;62.50;95957.93;1805549;78;25713;-82
2021/01/28 13:04:08;;;;;;;;;;;;;;;1.98;62.64;95955.30;1800839;78;28551;-82
2021/01/28 13:06:34;;;;;;;;;;;;;;;2.01;62.88;95956.75;1794270;78;25758;-81
2021/01/28 13:09:03;;;;;;;;;;;;;;;1.99;62.91;95953.46;1797520;78;26795;-83
2021/01/28 13:11:31;;;;;;;;;;;;;;;2.00;63.15;95948.45;1802173;78;26462;-81
2021/01/28 13:13:59;;;;;;;;;;;;;;;1.98;63.17;95941.16;1799160;78;25843;-83
2021/01/28 13:16:26;;;;;;;;;;;;;;;1.97;63.18;95944.84;1797592;78;28387;-80
2021/01/28 13:18:53;;;;;;;;;;;;;;;1.89;63.29;95935.17;1797863;78;25808;-82